createdAt,value
2019-01-03T00:00:04.838Z,990.62
2019-01-03T00:01:04.816Z,990.61
2019-01-03T00:02:04.801Z,990.67
2019-01-03T00:03:04.783Z,990.70
2019-01-03T00:04:04.764Z,990.63
2019-01-03T00:05:04.747Z,990.68
2019-01-03T00:06:04.730Z,990.69
2019-01-03T00:07:04.712Z,990.68
2019-01-03T00:08:04.695Z,990.69
2019-01-03T00:09:04.678Z,990.69
2019-01-03T00:10:04.659Z,990.73
2019-01-03T00:11:04.643Z,990.69
2019-01-03T00:12:04.622Z,990.72
2019-01-03T00:13:04.605Z,990.73
2019-01-03T00:14:04.592Z,990.76
2019-01-03T00:15:04.570Z,990.74
2019-01-03T00:16:04.553Z,990.77
2019-01-03T00:17:04.539Z,990.77
2019-01-03T00:18:04.518Z,990.82
2019-01-03T00:19:04.505Z,990.76
2019-01-03T00:20:04.481Z,990.80
2019-01-03T00:21:04.464Z,990.81
2019-01-03T00:22:04.448Z,990.78
2019-01-03T00:23:04.428Z,990.79
2019-01-03T00:24:04.413Z,990.76
2019-01-03T00:25:04.392Z,990.78
2019-01-03T00:26:04.375Z,990.76
2019-01-03T00:27:04.358Z,990.75
2019-01-03T00:28:04.381Z,990.74
2019-01-03T00:29:04.322Z,990.78
2019-01-03T00:30:04.305Z,990.75
2019-01-03T00:31:04.287Z,990.76
2019-01-03T00:32:04.270Z,990.81
2019-01-03T00:33:04.252Z,990.81
2019-01-03T00:34:04.234Z,990.80
2019-01-03T00:35:04.215Z,990.82
2019-01-03T00:36:04.199Z,990.83
2019-01-03T00:37:04.183Z,990.86
2019-01-03T00:38:04.163Z,990.83
2019-01-03T00:39:04.146Z,990.81
2019-01-03T00:40:04.126Z,990.82
2019-01-03T00:41:04.108Z,990.89
2019-01-03T00:42:04.092Z,990.84
2019-01-03T00:43:04.074Z,990.86
2019-01-03T00:44:04.057Z,990.87
2019-01-03T00:45:04.038Z,990.93
2019-01-03T00:46:04.021Z,990.89
2019-01-03T00:47:04.003Z,990.92
2019-01-03T00:48:03.984Z,990.93
2019-01-03T00:49:03.968Z,990.92
2019-01-03T00:50:03.949Z,990.92
2019-01-03T00:51:03.930Z,990.91
2019-01-03T00:52:03.916Z,990.93
2019-01-03T00:53:03.896Z,990.88
2019-01-03T00:54:03.878Z,990.95
2019-01-03T00:55:03.860Z,990.91
2019-01-03T00:56:03.846Z,990.91
2019-01-03T00:57:03.825Z,990.90
2019-01-03T00:58:03.806Z,990.90
2019-01-03T00:59:03.789Z,990.91
2019-01-03T01:00:03.773Z,990.86
2019-01-03T01:01:03.753Z,990.89
2019-01-03T01:02:03.737Z,990.91
2019-01-03T01:03:03.718Z,990.92
2019-01-03T01:04:03.703Z,990.94
2019-01-03T01:05:03.685Z,990.93
2019-01-03T01:06:03.665Z,990.92
2019-01-03T01:07:03.647Z,990.97
2019-01-03T01:08:03.629Z,990.99
2019-01-03T01:09:03.610Z,991.05
2019-01-03T01:10:03.595Z,991.06
2019-01-03T01:11:03.577Z,991.12
2019-01-03T01:12:03.557Z,991.08
2019-01-03T01:13:03.542Z,991.10
2019-01-03T01:14:03.522Z,991.09
2019-01-03T01:15:03.502Z,991.11
2019-01-03T01:16:03.486Z,991.10
2019-01-03T01:17:03.467Z,991.08
2019-01-03T01:18:03.451Z,991.11
2019-01-03T01:19:03.431Z,991.12
2019-01-03T01:20:03.416Z,991.16
2019-01-03T01:21:03.396Z,991.16
2019-01-03T01:22:03.377Z,991.16
2019-01-03T01:23:03.360Z,991.17
2019-01-03T01:24:03.343Z,991.17
2019-01-03T01:25:03.326Z,991.17
2019-01-03T01:26:03.306Z,991.16
2019-01-03T01:27:03.289Z,991.16
2019-01-03T01:28:03.269Z,991.10
2019-01-03T01:29:03.251Z,991.14
2019-01-03T01:30:03.234Z,991.10
2019-01-03T01:31:03.218Z,991.11
2019-01-03T01:32:03.200Z,991.11
2019-01-03T01:33:03.185Z,991.09
2019-01-03T01:34:03.162Z,991.14
2019-01-03T01:35:03.146Z,991.14
2019-01-03T01:36:03.128Z,991.11
2019-01-03T01:37:03.110Z,991.11
2019-01-03T01:38:03.089Z,991.11
2019-01-03T01:39:03.077Z,991.09
2019-01-03T01:40:03.057Z,991.13
2019-01-03T01:41:03.036Z,991.16
2019-01-03T01:42:03.019Z,991.16
2019-01-03T01:43:03.001Z,991.17
2019-01-03T01:44:02.984Z,991.14
2019-01-03T01:45:02.964Z,991.14
2019-01-03T01:46:02.948Z,991.19
2019-01-03T01:47:02.928Z,991.15
2019-01-03T01:48:02.911Z,991.16
2019-01-03T01:49:02.893Z,991.17
2019-01-03T01:50:02.874Z,991.17
2019-01-03T01:51:02.857Z,991.18
2019-01-03T01:52:02.838Z,991.18
2019-01-03T01:53:02.820Z,991.18
2019-01-03T01:54:02.802Z,991.20
2019-01-03T01:55:02.784Z,991.18
2019-01-03T01:56:02.765Z,991.17
2019-01-03T01:57:02.747Z,991.18
2019-01-03T01:58:02.729Z,991.15
2019-01-03T01:59:02.720Z,991.14
2019-01-03T02:00:02.694Z,991.11
2019-01-03T02:01:02.678Z,991.12
2019-01-03T02:02:02.659Z,991.12
2019-01-03T02:03:02.638Z,991.10
2019-01-03T02:04:02.621Z,991.13
2019-01-03T02:05:02.602Z,991.09
2019-01-03T02:06:02.586Z,991.10
2019-01-03T02:07:02.567Z,991.07
2019-01-03T02:08:02.550Z,991.02
2019-01-03T02:09:02.529Z,991.01
2019-01-03T02:10:02.513Z,991.05
2019-01-03T02:11:02.496Z,991.01
2019-01-03T02:12:02.476Z,991.05
2019-01-03T02:13:02.460Z,991.00
2019-01-03T02:14:02.440Z,990.98
2019-01-03T02:15:02.422Z,990.97
2019-01-03T02:16:02.405Z,990.97
2019-01-03T02:17:02.386Z,990.99
2019-01-03T02:18:02.371Z,990.99
2019-01-03T02:19:02.351Z,990.96
2019-01-03T02:20:02.332Z,990.99
2019-01-03T02:21:02.315Z,990.98
2019-01-03T02:22:02.296Z,990.98
2019-01-03T02:23:02.278Z,990.98
2019-01-03T02:24:02.261Z,990.93
2019-01-03T02:25:02.240Z,990.94
2019-01-03T02:26:02.222Z,990.89
2019-01-03T02:27:02.206Z,990.90
2019-01-03T02:28:02.188Z,990.86
2019-01-03T02:29:02.167Z,990.86
2019-01-03T02:30:02.149Z,990.86
2019-01-03T02:31:02.131Z,990.86
2019-01-03T02:32:02.116Z,990.87
2019-01-03T02:33:02.102Z,990.89
2019-01-03T02:34:02.085Z,990.87
2019-01-03T02:35:02.083Z,990.85
2019-01-03T02:36:02.043Z,990.86
2019-01-03T02:37:02.022Z,990.87
2019-01-03T02:38:02.005Z,990.89
2019-01-03T02:39:01.987Z,990.90
2019-01-03T02:40:01.983Z,990.89
2019-01-03T02:41:01.948Z,990.91
2019-01-03T02:42:01.930Z,990.91
2019-01-03T02:43:01.913Z,990.89
2019-01-03T02:44:01.894Z,990.89
2019-01-03T02:45:01.966Z,990.89
2019-01-03T02:46:01.930Z,990.86
2019-01-03T02:47:01.839Z,990.87
2019-01-03T02:48:01.870Z,990.89
2019-01-03T02:49:01.806Z,990.87
2019-01-03T02:50:01.785Z,990.88
2019-01-03T02:51:01.767Z,990.86
2019-01-03T02:52:01.748Z,990.86
2019-01-03T02:53:01.732Z,990.85
2019-01-03T02:54:01.713Z,990.90
2019-01-03T02:55:01.710Z,990.92
2019-01-03T02:56:01.688Z,990.91
2019-01-03T02:57:01.656Z,990.90
2019-01-03T02:58:01.640Z,990.94
2019-01-03T02:59:01.622Z,990.93
2019-01-03T03:00:01.607Z,990.88
2019-01-03T03:01:01.585Z,990.93
2019-01-03T03:02:01.569Z,990.95
2019-01-03T03:03:01.550Z,990.91
2019-01-03T03:04:01.533Z,990.91
2019-01-03T03:05:01.513Z,990.90
2019-01-03T03:06:01.494Z,990.89
2019-01-03T03:07:01.475Z,990.88
2019-01-03T03:08:01.456Z,990.87
2019-01-03T03:09:01.437Z,990.89
2019-01-03T03:10:01.424Z,990.89
2019-01-03T03:11:01.401Z,990.87
2019-01-03T03:12:01.383Z,990.90
2019-01-03T03:13:01.372Z,990.90
2019-01-03T03:14:01.347Z,990.89
2019-01-03T03:15:01.331Z,990.89
2019-01-03T03:16:01.310Z,990.90
2019-01-03T03:17:01.294Z,990.87
2019-01-03T03:18:01.274Z,990.89
2019-01-03T03:19:01.256Z,990.87
2019-01-03T03:20:01.238Z,990.89
2019-01-03T03:21:01.218Z,990.86
2019-01-03T03:22:01.198Z,990.87
2019-01-03T03:23:01.180Z,990.90
2019-01-03T03:24:01.164Z,990.86
2019-01-03T03:25:01.146Z,990.87
2019-01-03T03:26:01.127Z,990.88
2019-01-03T03:27:01.107Z,990.86
2019-01-03T03:28:01.088Z,990.89
2019-01-03T03:29:01.077Z,990.89
2019-01-03T03:30:01.052Z,990.88
2019-01-03T03:31:01.036Z,990.89
2019-01-03T03:32:01.018Z,990.89
2019-01-03T03:33:00.998Z,990.86
2019-01-03T03:34:00.977Z,990.90
2019-01-03T03:35:00.963Z,990.89
2019-01-03T03:36:00.944Z,990.92
2019-01-03T03:37:00.924Z,990.88
2019-01-03T03:38:00.906Z,990.87
2019-01-03T03:39:00.892Z,990.91
2019-01-03T03:40:00.867Z,990.89
2019-01-03T03:41:00.853Z,990.89
2019-01-03T03:42:00.830Z,990.89
2019-01-03T03:43:00.814Z,990.90
2019-01-03T03:44:00.796Z,990.88
2019-01-03T03:45:00.781Z,990.92
2019-01-03T03:46:00.759Z,990.90
2019-01-03T03:47:00.740Z,990.89
2019-01-03T03:48:00.720Z,990.88
2019-01-03T03:49:00.705Z,990.86
2019-01-03T03:50:00.685Z,990.85
2019-01-03T03:51:00.665Z,990.87
2019-01-03T03:52:00.648Z,990.90
2019-01-03T03:53:00.628Z,990.90
2019-01-03T03:54:00.611Z,990.87
2019-01-03T03:55:00.593Z,990.88
2019-01-03T03:56:00.580Z,990.84
2019-01-03T03:57:00.562Z,990.85
2019-01-03T03:58:00.536Z,990.81
2019-01-03T03:59:00.517Z,990.80
2019-01-03T04:00:00.502Z,990.83
2019-01-03T04:01:00.480Z,990.84
2019-01-03T04:02:00.464Z,990.86
2019-01-03T04:03:00.444Z,990.85
2019-01-03T04:04:00.429Z,990.90
2019-01-03T04:05:00.406Z,990.88
2019-01-03T04:06:00.389Z,990.91
2019-01-03T04:07:00.372Z,990.92
2019-01-03T04:08:00.354Z,990.93
2019-01-03T04:09:00.333Z,990.94
2019-01-03T04:10:00.316Z,990.97
2019-01-03T04:11:00.298Z,990.94
2019-01-03T04:12:00.278Z,990.89
2019-01-03T04:13:00.259Z,990.95
2019-01-03T04:14:00.240Z,990.94
2019-01-03T04:15:00.319Z,990.92
2019-01-03T04:16:00.212Z,990.94
2019-01-03T04:17:00.184Z,990.90
2019-01-03T04:18:00.167Z,990.92
2019-01-03T04:19:00.148Z,990.96
2019-01-03T04:20:00.248Z,990.89
2019-01-03T04:21:00.112Z,990.90
2019-01-03T04:22:00.093Z,990.90
2019-01-03T04:23:00.073Z,990.91
2019-01-03T04:24:00.062Z,990.93
2019-01-03T04:25:00.038Z,990.96
2019-01-03T04:26:00.020Z,990.95
2019-01-03T04:27:00.002Z,990.95
2019-01-03T04:27:59.983Z,990.93
2019-01-03T04:28:59.964Z,990.98
2019-01-03T04:29:59.949Z,990.99
2019-01-03T04:30:59.925Z,990.92
2019-01-03T04:31:59.994Z,990.95
2019-01-03T04:32:59.887Z,990.94
2019-01-03T04:33:59.869Z,990.95
2019-01-03T04:34:59.855Z,990.94
2019-01-03T04:35:59.834Z,990.97
2019-01-03T04:36:59.815Z,990.95
2019-01-03T04:37:59.795Z,990.94
2019-01-03T04:38:59.777Z,990.95
2019-01-03T04:39:59.762Z,990.93
2019-01-03T04:40:59.738Z,990.92
2019-01-03T04:41:59.720Z,990.91
2019-01-03T04:42:59.704Z,990.91
2019-01-03T04:43:59.684Z,990.90
2019-01-03T04:44:59.667Z,990.86
2019-01-03T04:45:59.646Z,990.86
2019-01-03T04:46:59.629Z,990.82
2019-01-03T04:47:59.610Z,990.90
2019-01-03T04:48:59.593Z,990.90
2019-01-03T04:49:59.572Z,990.88
2019-01-03T04:50:59.558Z,990.84
2019-01-03T04:51:59.535Z,990.86
2019-01-03T04:52:59.518Z,990.85
2019-01-03T04:53:59.497Z,990.84
2019-01-03T04:54:59.480Z,990.86
2019-01-03T04:55:59.461Z,990.87
2019-01-03T04:56:59.442Z,990.85
2019-01-03T04:57:59.424Z,990.85
2019-01-03T04:58:59.427Z,990.89
2019-01-03T04:59:59.385Z,990.88
2019-01-03T05:00:59.365Z,990.88
2019-01-03T05:01:59.347Z,990.88
2019-01-03T05:02:59.329Z,990.87
2019-01-03T05:03:59.312Z,990.88
2019-01-03T05:04:59.293Z,990.89
2019-01-03T05:05:59.274Z,990.88
2019-01-03T05:06:59.255Z,990.91
2019-01-03T05:07:59.238Z,990.90
2019-01-03T05:08:59.219Z,990.94
2019-01-03T05:09:59.206Z,990.93
2019-01-03T05:10:59.183Z,990.96
2019-01-03T05:11:59.163Z,990.94
2019-01-03T05:12:59.142Z,990.94
2019-01-03T05:13:59.125Z,990.98
2019-01-03T05:14:59.109Z,990.95
2019-01-03T05:15:59.090Z,990.94
2019-01-03T05:16:59.072Z,990.92
2019-01-03T05:17:59.052Z,990.90
2019-01-03T05:18:59.033Z,990.92
2019-01-03T05:19:59.014Z,990.91
2019-01-03T05:20:58.993Z,990.88
2019-01-03T05:21:58.976Z,990.94
2019-01-03T05:22:58.956Z,990.93
2019-01-03T05:23:58.940Z,990.96
2019-01-03T05:24:58.922Z,990.98
2019-01-03T05:25:58.900Z,990.99
2019-01-03T05:26:58.884Z,990.96
2019-01-03T05:27:58.865Z,991.02
2019-01-03T05:28:58.845Z,991.01
2019-01-03T05:29:58.832Z,991.07
2019-01-03T05:30:58.816Z,991.05
2019-01-03T05:31:58.791Z,991.05
2019-01-03T05:32:58.770Z,991.07
2019-01-03T05:33:58.751Z,991.07
2019-01-03T05:34:58.734Z,991.08
2019-01-03T05:35:58.715Z,991.09
2019-01-03T05:36:58.698Z,991.08
2019-01-03T05:37:58.676Z,991.10
2019-01-03T05:38:58.661Z,991.12
2019-01-03T05:39:58.638Z,991.05
2019-01-03T05:40:58.622Z,991.08
2019-01-03T05:41:58.602Z,991.07
2019-01-03T05:42:58.581Z,991.08
2019-01-03T05:43:58.566Z,991.07
2019-01-03T05:44:58.546Z,991.08
2019-01-03T05:45:58.701Z,991.07
2019-01-03T05:46:58.508Z,991.06
2019-01-03T05:47:58.488Z,991.08
2019-01-03T05:48:58.469Z,991.05
2019-01-03T05:49:58.449Z,991.02
2019-01-03T05:50:58.434Z,991.02
2019-01-03T05:51:58.412Z,991.02
2019-01-03T05:52:58.396Z,991.04
2019-01-03T05:53:58.381Z,991.05
2019-01-03T05:54:58.358Z,991.01
2019-01-03T05:55:58.338Z,991.00
2019-01-03T05:56:58.318Z,990.97
2019-01-03T05:57:58.299Z,990.99
2019-01-03T05:58:58.282Z,990.97
2019-01-03T05:59:58.262Z,990.95
2019-01-03T06:00:58.246Z,990.98
2019-01-03T06:01:58.224Z,990.97
2019-01-03T06:02:58.207Z,990.94
2019-01-03T06:03:58.188Z,990.95
2019-01-03T06:04:58.167Z,990.97
2019-01-03T06:05:58.149Z,990.97
2019-01-03T06:06:58.155Z,990.99
2019-01-03T06:07:58.114Z,990.99
2019-01-03T06:08:58.096Z,990.97
2019-01-03T06:09:58.074Z,991.04
2019-01-03T06:10:58.057Z,991.07
2019-01-03T06:11:58.037Z,991.07
2019-01-03T06:12:58.022Z,991.05
2019-01-03T06:13:58.001Z,991.06
2019-01-03T06:14:57.983Z,991.09
2019-01-03T06:15:57.962Z,991.04
2019-01-03T06:16:57.943Z,991.06
2019-01-03T06:17:57.925Z,991.10
2019-01-03T06:18:57.906Z,991.13
2019-01-03T06:19:57.891Z,991.13
2019-01-03T06:20:57.868Z,991.14
2019-01-03T06:21:57.849Z,991.19
2019-01-03T06:22:57.830Z,991.17
2019-01-03T06:23:57.812Z,991.13
2019-01-03T06:24:57.794Z,991.14
2019-01-03T06:25:57.773Z,991.12
2019-01-03T06:26:57.755Z,991.17
2019-01-03T06:27:57.736Z,991.15
2019-01-03T06:28:57.717Z,991.18
2019-01-03T06:29:57.699Z,991.20
2019-01-03T06:30:57.680Z,991.20
2019-01-03T06:31:57.660Z,991.26
2019-01-03T06:32:57.643Z,991.28
2019-01-03T06:33:57.623Z,991.27
2019-01-03T06:34:57.604Z,991.28
2019-01-03T06:35:57.587Z,991.26
2019-01-03T06:36:57.568Z,991.26
2019-01-03T06:37:57.548Z,991.27
2019-01-03T06:38:57.531Z,991.30
2019-01-03T06:39:57.509Z,991.24
2019-01-03T06:40:57.493Z,991.19
2019-01-03T06:41:57.471Z,991.17
2019-01-03T06:42:57.456Z,991.15
2019-01-03T06:43:57.435Z,991.10
2019-01-03T06:44:57.416Z,991.07
2019-01-03T06:45:57.397Z,991.05
2019-01-03T06:46:57.378Z,991.04
2019-01-03T06:47:57.361Z,991.07
2019-01-03T06:48:57.339Z,991.11
2019-01-03T06:49:57.321Z,991.07
2019-01-03T06:50:57.304Z,991.12
2019-01-03T06:51:57.285Z,991.11
2019-01-03T06:52:57.265Z,991.21
2019-01-03T06:53:57.246Z,991.23
2019-01-03T06:54:57.226Z,991.31
2019-01-03T06:55:57.207Z,991.35
2019-01-03T06:56:57.189Z,991.39
2019-01-03T06:57:57.172Z,991.41
2019-01-03T06:58:57.153Z,991.44
2019-01-03T06:59:57.134Z,991.49
2019-01-03T07:00:57.113Z,991.52
2019-01-03T07:01:57.093Z,991.55
2019-01-03T07:02:57.076Z,991.52
2019-01-03T07:03:57.058Z,991.49
2019-01-03T07:04:57.039Z,991.50
2019-01-03T07:05:57.018Z,991.52
2019-01-03T07:06:56.998Z,991.56
2019-01-03T07:07:56.980Z,991.53
2019-01-03T07:08:56.960Z,991.53
2019-01-03T07:09:56.943Z,991.48
2019-01-03T07:10:56.924Z,991.49
2019-01-03T07:11:56.906Z,991.47
2019-01-03T07:12:56.886Z,991.45
2019-01-03T07:13:56.866Z,991.43
2019-01-03T07:14:56.849Z,991.46
2019-01-03T07:15:56.832Z,991.44
2019-01-03T07:16:56.807Z,991.47
2019-01-03T07:17:56.789Z,991.49
2019-01-03T07:18:56.772Z,991.52
2019-01-03T07:19:56.752Z,991.51
2019-01-03T07:20:56.732Z,991.56
2019-01-03T07:21:56.714Z,991.60
2019-01-03T07:22:56.693Z,991.60
2019-01-03T07:23:56.677Z,991.62
2019-01-03T07:24:56.657Z,991.62
2019-01-03T07:25:56.643Z,991.58
2019-01-03T07:26:56.622Z,991.58
2019-01-03T07:27:56.601Z,991.67
2019-01-03T07:28:56.581Z,991.72
2019-01-03T07:29:56.561Z,991.71
2019-01-03T07:30:56.544Z,991.73
2019-01-03T07:31:56.526Z,991.78
2019-01-03T07:32:56.509Z,991.76
2019-01-03T07:33:56.485Z,991.76
2019-01-03T07:34:56.467Z,991.74
2019-01-03T07:35:56.447Z,991.77
2019-01-03T07:36:56.429Z,991.77
2019-01-03T07:37:56.409Z,991.78
2019-01-03T07:38:56.392Z,991.77
2019-01-03T07:39:56.373Z,991.79
2019-01-03T07:40:56.355Z,991.80
2019-01-03T07:41:56.333Z,991.81
2019-01-03T07:42:56.315Z,991.83
2019-01-03T07:43:56.300Z,991.80
2019-01-03T07:44:56.277Z,991.79
2019-01-03T07:45:56.257Z,991.77
2019-01-03T07:46:56.238Z,991.78
2019-01-03T07:47:56.220Z,991.75
2019-01-03T07:48:56.199Z,991.75
2019-01-03T07:49:56.186Z,991.77
2019-01-03T07:50:56.163Z,991.74
2019-01-03T07:51:56.145Z,991.82
2019-01-03T07:52:56.125Z,991.81
2019-01-03T07:53:56.107Z,991.79
2019-01-03T07:54:56.087Z,991.83
2019-01-03T07:55:56.069Z,991.84
2019-01-03T07:56:56.049Z,991.88
2019-01-03T07:57:56.031Z,991.85
2019-01-03T07:58:56.012Z,991.90
2019-01-03T07:59:55.995Z,991.93
2019-01-03T08:00:55.978Z,991.93
2019-01-03T08:01:55.955Z,991.96
2019-01-03T08:02:55.937Z,991.91
2019-01-03T08:03:55.919Z,991.90
2019-01-03T08:04:55.898Z,991.89
2019-01-03T08:05:55.879Z,991.93
2019-01-03T08:06:55.860Z,991.96
2019-01-03T08:07:55.844Z,991.95
2019-01-03T08:08:55.823Z,991.95
2019-01-03T08:09:55.806Z,991.96
2019-01-03T08:10:55.785Z,991.98
2019-01-03T08:11:55.765Z,991.95
2019-01-03T08:12:55.748Z,991.97
2019-01-03T08:13:55.727Z,991.98
2019-01-03T08:14:55.709Z,992.00
2019-01-03T08:15:55.692Z,991.98
2019-01-03T08:16:55.672Z,991.95
2019-01-03T08:17:55.652Z,991.98
2019-01-03T08:18:55.633Z,991.97
2019-01-03T08:19:55.616Z,991.99
2019-01-03T08:20:55.598Z,991.97
2019-01-03T08:21:55.575Z,991.92
2019-01-03T08:22:55.559Z,991.94
2019-01-03T08:23:55.538Z,991.89
2019-01-03T08:24:55.519Z,991.91
2019-01-03T08:25:55.503Z,991.93
2019-01-03T08:26:55.482Z,991.93
2019-01-03T08:27:55.465Z,991.94
2019-01-03T08:28:55.444Z,991.90
2019-01-03T08:29:55.426Z,991.95
2019-01-03T08:30:55.407Z,991.93
2019-01-03T08:31:55.394Z,991.90
2019-01-03T08:32:55.371Z,991.94
2019-01-03T08:33:55.354Z,991.97
2019-01-03T08:34:55.333Z,991.93
2019-01-03T08:35:55.312Z,991.90
2019-01-03T08:36:55.294Z,991.88
2019-01-03T08:37:55.275Z,991.93
2019-01-03T08:38:55.254Z,991.91
2019-01-03T08:39:55.239Z,992.00
2019-01-03T08:40:55.218Z,992.02
2019-01-03T08:41:55.198Z,992.06
2019-01-03T08:42:55.180Z,991.97
2019-01-03T08:43:55.165Z,991.92
2019-01-03T08:44:55.142Z,991.90
2019-01-03T08:45:55.126Z,991.90
2019-01-03T08:46:55.107Z,991.96
2019-01-03T08:47:55.087Z,991.96
2019-01-03T08:49:00.391Z,991.93
2019-01-03T08:49:55.050Z,991.92
2019-01-03T08:50:55.029Z,991.90
2019-01-03T08:51:55.014Z,991.98
2019-01-03T08:52:54.994Z,991.94
2019-01-03T08:53:54.975Z,991.91
2019-01-03T08:54:54.955Z,991.91
2019-01-03T08:55:54.940Z,991.90
2019-01-03T08:56:54.917Z,991.87
2019-01-03T08:57:54.899Z,991.87
2019-01-03T08:58:54.881Z,991.89
2019-01-03T08:59:54.864Z,991.91
2019-01-03T09:00:54.846Z,991.91
2019-01-03T09:01:54.826Z,991.94
2019-01-03T09:02:54.808Z,991.90
2019-01-03T09:03:54.789Z,991.87
2019-01-03T09:04:54.769Z,991.87
2019-01-03T09:05:54.753Z,991.82
2019-01-03T09:06:54.733Z,991.86
2019-01-03T09:07:54.715Z,991.87
2019-01-03T09:08:54.696Z,991.87
2019-01-03T09:09:54.677Z,991.87
2019-01-03T09:10:54.659Z,991.88
2019-01-03T09:11:54.639Z,991.85
2019-01-03T09:12:54.622Z,991.87
2019-01-03T09:13:54.605Z,991.87
2019-01-03T09:14:54.586Z,991.89
2019-01-03T09:15:54.567Z,991.93
2019-01-03T09:16:54.548Z,991.98
2019-01-03T09:17:54.529Z,992.03
2019-01-03T09:18:54.510Z,992.03
2019-01-03T09:19:54.497Z,992.06
2019-01-03T09:20:54.474Z,992.04
2019-01-03T09:21:54.456Z,991.96
2019-01-03T09:22:54.438Z,992.00
2019-01-03T09:23:54.422Z,991.92
2019-01-03T09:24:54.403Z,991.94
2019-01-03T09:25:54.383Z,991.94
2019-01-03T09:26:54.366Z,991.96
2019-01-03T09:27:54.348Z,991.99
2019-01-03T09:28:54.329Z,992.04
2019-01-03T09:29:54.312Z,991.99
2019-01-03T09:30:54.296Z,991.99
2019-01-03T09:31:54.277Z,991.92
2019-01-03T09:32:54.256Z,991.93
2019-01-03T09:33:54.240Z,991.93
2019-01-03T09:34:54.221Z,991.98
2019-01-03T09:35:54.205Z,991.98
2019-01-03T09:36:54.186Z,991.96
2019-01-03T09:37:54.167Z,991.98
2019-01-03T09:38:54.229Z,991.99
2019-01-03T09:39:54.135Z,991.95
2019-01-03T09:40:54.115Z,991.97
2019-01-03T09:41:54.097Z,991.94
2019-01-03T09:42:54.079Z,991.94
2019-01-03T09:43:54.064Z,991.89
2019-01-03T09:44:54.043Z,991.87
2019-01-03T09:45:54.917Z,991.87
2019-01-03T09:46:54.012Z,991.85
2019-01-03T09:47:53.994Z,991.84
2019-01-03T09:48:53.972Z,991.80
2019-01-03T09:49:53.957Z,991.76
2019-01-03T09:50:53.940Z,991.75
2019-01-03T09:51:53.921Z,991.79
2019-01-03T09:52:53.904Z,991.77
2019-01-03T09:53:53.885Z,991.76
2019-01-03T09:54:53.868Z,991.76
2019-01-03T09:55:53.851Z,991.77
2019-01-03T09:56:53.833Z,991.76
2019-01-03T09:57:53.818Z,991.72
2019-01-03T09:58:53.800Z,991.73
2019-01-03T09:59:53.782Z,991.69
2019-01-03T10:00:53.764Z,991.77
2019-01-03T10:01:53.747Z,991.78
2019-01-03T10:02:53.733Z,991.79
2019-01-03T10:03:53.715Z,991.81
2019-01-03T10:04:53.700Z,991.77
2019-01-03T10:05:53.679Z,991.75
2019-01-03T10:06:53.661Z,991.76
2019-01-03T10:07:53.645Z,991.72
2019-01-03T10:08:53.627Z,991.68
2019-01-03T10:09:53.609Z,991.68
2019-01-03T10:10:53.595Z,991.68
2019-01-03T10:11:53.575Z,991.69
2019-01-03T10:12:53.559Z,991.66
2019-01-03T10:13:53.541Z,991.62
2019-01-03T10:14:53.552Z,991.63
2019-01-03T10:15:53.508Z,991.65
2019-01-03T10:16:53.492Z,991.67
2019-01-03T10:17:53.476Z,991.66
2019-01-03T10:18:53.458Z,991.62
2019-01-03T10:19:53.444Z,991.58
2019-01-03T10:20:53.425Z,991.56
2019-01-03T10:21:53.413Z,991.58
2019-01-03T10:22:53.391Z,991.52
2019-01-03T10:23:53.376Z,991.52
2019-01-03T10:24:53.359Z,991.50
2019-01-03T10:25:53.340Z,991.53
2019-01-03T10:26:53.326Z,991.47
2019-01-03T10:27:53.307Z,991.47
2019-01-03T10:28:53.291Z,991.44
2019-01-03T10:29:53.274Z,991.46
2019-01-03T10:30:53.257Z,991.46
2019-01-03T10:31:53.242Z,991.43
2019-01-03T10:32:53.225Z,991.45
2019-01-03T10:33:53.209Z,991.43
2019-01-03T10:34:53.191Z,991.37
2019-01-03T10:35:53.175Z,991.38
2019-01-03T10:36:53.161Z,991.33
2019-01-03T10:37:53.144Z,991.29
2019-01-03T10:38:53.128Z,991.26
2019-01-03T10:39:53.111Z,991.21
2019-01-03T10:40:53.094Z,991.24
2019-01-03T10:41:53.079Z,991.22
2019-01-03T10:42:53.061Z,991.25
2019-01-03T10:43:53.045Z,991.22
2019-01-03T10:44:53.030Z,991.20
2019-01-03T10:45:53.013Z,991.18
2019-01-03T10:46:52.997Z,991.17
2019-01-03T10:47:52.983Z,991.16
2019-01-03T10:48:52.966Z,991.14
2019-01-03T10:49:52.948Z,991.12
2019-01-03T10:50:52.931Z,991.06
2019-01-03T10:51:52.920Z,991.05
2019-01-03T10:52:52.900Z,991.12
2019-01-03T10:53:52.883Z,991.09
2019-01-03T10:54:52.868Z,991.11
2019-01-03T10:55:52.852Z,991.10
2019-01-03T10:56:52.836Z,991.13
2019-01-03T10:57:52.820Z,991.12
2019-01-03T10:58:52.805Z,991.08
2019-01-03T10:59:52.789Z,991.04
2019-01-03T11:00:52.772Z,991.05
2019-01-03T11:01:52.756Z,991.04
2019-01-03T11:02:52.746Z,991.00
2019-01-03T11:03:52.726Z,990.99
2019-01-03T11:04:52.711Z,991.01
2019-01-03T11:05:52.694Z,990.97
2019-01-03T11:06:52.680Z,990.92
2019-01-03T11:07:52.665Z,990.91
2019-01-03T11:08:52.646Z,990.90
2019-01-03T11:09:52.631Z,990.92
2019-01-03T11:10:52.617Z,990.87
2019-01-03T11:11:52.601Z,990.90
2019-01-03T11:12:52.586Z,990.90
2019-01-03T11:13:52.569Z,990.90
2019-01-03T11:14:52.556Z,990.89
2019-01-03T11:15:52.537Z,990.89
2019-01-03T11:16:52.523Z,990.97
2019-01-03T11:17:52.507Z,990.99
2019-01-03T11:18:52.492Z,990.94
2019-01-03T11:19:52.476Z,990.95
2019-01-03T11:20:52.460Z,990.94
2019-01-03T11:21:52.446Z,990.96
2019-01-03T11:22:52.431Z,990.89
2019-01-03T11:23:52.415Z,990.89
2019-01-03T11:24:52.399Z,990.88
2019-01-03T11:25:52.383Z,990.92
2019-01-03T11:26:52.369Z,990.90
2019-01-03T11:27:52.352Z,990.85
2019-01-03T11:28:52.338Z,990.83
2019-01-03T11:29:52.322Z,990.86
2019-01-03T11:30:52.307Z,990.86
2019-01-03T11:31:52.292Z,990.85
2019-01-03T11:32:52.275Z,990.84
2019-01-03T11:33:52.262Z,990.87
2019-01-03T11:34:52.246Z,990.81
2019-01-03T11:35:52.233Z,990.84
2019-01-03T11:36:52.215Z,990.81
2019-01-03T11:37:52.202Z,990.81
2019-01-03T11:38:52.187Z,990.84
2019-01-03T11:39:52.170Z,990.84
2019-01-03T11:40:52.153Z,990.84
2019-01-03T11:41:52.139Z,990.91
2019-01-03T11:42:52.123Z,990.86
2019-01-03T11:43:52.107Z,990.83
2019-01-03T11:44:52.091Z,990.80
2019-01-03T11:45:52.076Z,990.79
2019-01-03T11:46:52.063Z,990.77
2019-01-03T11:47:52.048Z,990.74
2019-01-03T11:48:52.030Z,990.71
2019-01-03T11:49:52.015Z,990.71
2019-01-03T11:50:52.002Z,990.71
2019-01-03T11:51:51.984Z,990.73
2019-01-03T11:52:51.967Z,990.76
2019-01-03T11:53:51.954Z,990.74
2019-01-03T11:54:51.937Z,990.73
2019-01-03T11:55:51.924Z,990.76
2019-01-03T11:56:51.905Z,990.71
2019-01-03T11:57:51.893Z,990.75
2019-01-03T11:58:51.876Z,990.79
2019-01-03T11:59:51.864Z,990.79
2019-01-03T12:00:51.846Z,990.78
2019-01-03T12:01:51.829Z,990.74
2019-01-03T12:02:51.814Z,990.73
2019-01-03T12:03:51.799Z,990.70
2019-01-03T12:04:51.784Z,990.69
2019-01-03T12:05:51.770Z,990.66
2019-01-03T12:06:51.755Z,990.65
2019-01-03T12:07:51.738Z,990.64
2019-01-03T12:08:51.722Z,990.61
2019-01-03T12:09:51.707Z,990.65
2019-01-03T12:10:51.695Z,990.65
2019-01-03T12:11:51.679Z,990.65
2019-01-03T12:12:51.661Z,990.60
2019-01-03T12:13:51.646Z,990.64
2019-01-03T12:14:51.635Z,990.61
2019-01-03T12:15:51.615Z,990.56
2019-01-03T12:16:51.599Z,990.60
2019-01-03T12:17:51.583Z,990.59
2019-01-03T12:18:51.568Z,990.60
2019-01-03T12:19:51.554Z,990.58
2019-01-03T12:20:51.536Z,990.61
2019-01-03T12:21:51.521Z,990.58
2019-01-03T12:22:51.506Z,990.57
2019-01-03T12:23:51.490Z,990.52
2019-01-03T12:24:51.475Z,990.52
2019-01-03T12:25:51.461Z,990.52
2019-01-03T12:26:51.446Z,990.55
2019-01-03T12:27:51.430Z,990.56